sensor_id;sensor_type;location;lat;lon;timestamp;P1;durP1;ratioP1;P2;durP2;ratioP2
43646;SDS011;56152;49.996;18.980;2023-01-09T00:00:56;83.77;;;46.53;;
43646;SDS011;56152;49.996;18.980;2023-01-09T00:06:05;110.25;;;65.03;;
43646;SDS011;56152;49.996;18.980;2023-01-09T00:11:11;90.90;;;53.22;;
43646;SDS011;56152;49.996;18.980;2023-01-09T00:16:26;99.83;;;53.30;;
43646;SDS011;56152;49.996;18.980;2023-01-09T00:21:28;99.07;;;51.37;;
43646;SDS011;56152;49.996;18.980;2023-01-09T00:26:39;93.97;;;52.63;;
43646;SDS011;56152;49.996;18.980;2023-01-09T00:31:44;82.67;;;51.13;;
43646;SDS011;56152;49.996;18.980;2023-01-09T00:36:48;105.10;;;61.92;;
43646;SDS011;56152;49.996;18.980;2023-01-09T00:41:54;97.50;;;57.20;;
43646;SDS011;56152;49.996;18.980;2023-01-09T00:47:06;120.80;;;67.05;;
43646;SDS011;56152;49.996;18.980;2023-01-09T00:52:12;83.73;;;51.77;;
43646;SDS011;56152;49.996;18.980;2023-01-09T00:57:15;80.20;;;50.10;;
43646;SDS011;56152;49.996;18.980;2023-01-09T01:02:20;98.77;;;60.67;;
43646;SDS011;56152;49.996;18.980;2023-01-09T01:07:22;99.10;;;60.73;;
43646;SDS011;56152;49.996;18.980;2023-01-09T01:12:40;149.15;;;86.95;;
43646;SDS011;56152;49.996;18.980;2023-01-09T01:17:45;103.53;;;66.53;;
43646;SDS011;56152;49.996;18.980;2023-01-09T01:22:48;137.50;;;77.50;;
43646;SDS011;56152;49.996;18.980;2023-01-09T01:27:58;83.03;;;51.33;;
43646;SDS011;56152;49.996;18.980;2023-01-09T01:38:17;94.60;;;58.23;;
43646;SDS011;56152;49.996;18.980;2023-01-09T01:43:20;129.20;;;74.63;;
43646;SDS011;56152;49.996;18.980;2023-01-09T01:48:26;172.13;;;90.60;;
43646;SDS011;56152;49.996;18.980;2023-01-09T01:53:32;152.83;;;89.13;;
43646;SDS011;56152;49.996;18.980;2023-01-09T01:58:37;150.50;;;87.10;;
43646;SDS011;56152;49.996;18.980;2023-01-09T02:03:44;149.00;;;84.17;;
43646;SDS011;56152;49.996;18.980;2023-01-09T02:08:46;167.23;;;92.47;;
43646;SDS011;56152;49.996;18.980;2023-01-09T02:13:50;165.80;;;95.73;;
43646;SDS011;56152;49.996;18.980;2023-01-09T02:19:03;161.87;;;94.27;;
43646;SDS011;56152;49.996;18.980;2023-01-09T02:35:26;172.70;;;96.70;;
43646;SDS011;56152;49.996;18.980;2023-01-09T02:40:52;152.47;;;89.70;;
43646;SDS011;56152;49.996;18.980;2023-01-09T02:46:02;154.60;;;86.90;;
43646;SDS011;56152;49.996;18.980;2023-01-09T02:51:12;142.87;;;75.70;;
43646;SDS011;56152;49.996;18.980;2023-01-09T03:02:03;165.53;;;92.43;;
43646;SDS011;56152;49.996;18.980;2023-01-09T03:07:12;132.23;;;76.57;;
43646;SDS011;56152;49.996;18.980;2023-01-09T03:12:22;151.00;;;86.87;;
43646;SDS011;56152;49.996;18.980;2023-01-09T03:17:31;192.60;;;110.63;;
43646;SDS011;56152;49.996;18.980;2023-01-09T03:22:38;172.23;;;98.53;;
43646;SDS011;56152;49.996;18.980;2023-01-09T03:27:45;147.07;;;85.90;;
43646;SDS011;56152;49.996;18.980;2023-01-09T03:32:51;140.17;;;83.83;;
43646;SDS011;56152;49.996;18.980;2023-01-09T03:37:53;171.87;;;94.87;;
43646;SDS011;56152;49.996;18.980;2023-01-09T03:42:57;131.57;;;76.77;;
43646;SDS011;56152;49.996;18.980;2023-01-09T03:48:01;145.40;;;83.37;;
43646;SDS011;56152;49.996;18.980;2023-01-09T03:53:05;155.17;;;88.30;;
43646;SDS011;56152;49.996;18.980;2023-01-09T03:58:08;161.77;;;87.80;;
43646;SDS011;56152;49.996;18.980;2023-01-09T04:03:13;151.73;;;87.13;;
43646;SDS011;56152;49.996;18.980;2023-01-09T04:08:16;125.30;;;67.53;;
43646;SDS011;56152;49.996;18.980;2023-01-09T04:18:34;152.13;;;86.07;;
43646;SDS011;56152;49.996;18.980;2023-01-09T04:23:36;125.40;;;70.50;;
43646;SDS011;56152;49.996;18.980;2023-01-09T04:28:38;121.33;;;67.07;;
43646;SDS011;56152;49.996;18.980;2023-01-09T04:33:42;140.87;;;76.57;;
43646;SDS011;56152;49.996;18.980;2023-01-09T04:38:52;124.50;;;70.03;;
43646;SDS011;56152;49.996;18.980;2023-01-09T04:43:54;133.47;;;66.03;;
43646;SDS011;56152;49.996;18.980;2023-01-09T04:49:02;162.00;;;75.63;;
43646;SDS011;56152;49.996;18.980;2023-01-09T04:54:04;126.47;;;67.07;;
43646;SDS011;56152;49.996;18.980;2023-01-09T04:59:13;148.27;;;74.43;;
43646;SDS011;56152;49.996;18.980;2023-01-09T05:04:17;105.30;;;58.63;;
43646;SDS011;56152;49.996;18.980;2023-01-09T05:09:20;144.20;;;81.03;;
43646;SDS011;56152;49.996;18.980;2023-01-09T05:14:22;160.30;;;95.03;;
43646;SDS011;56152;49.996;18.980;2023-01-09T05:19:27;202.97;;;113.30;;
43646;SDS011;56152;49.996;18.980;2023-01-09T05:24:29;163.07;;;88.23;;
43646;SDS011;56152;49.996;18.980;2023-01-09T05:29:31;163.37;;;92.57;;
43646;SDS011;56152;49.996;18.980;2023-01-09T05:34:36;113.73;;;69.60;;
43646;SDS011;56152;49.996;18.980;2023-01-09T05:39:38;97.97;;;59.63;;
43646;SDS011;56152;49.996;18.980;2023-01-09T05:44:42;91.68;;;54.25;;
43646;SDS011;56152;49.996;18.980;2023-01-09T05:49:47;83.40;;;49.63;;
43646;SDS011;56152;49.996;18.980;2023-01-09T05:54:49;107.20;;;62.13;;
43646;SDS011;56152;49.996;18.980;2023-01-09T05:59:52;114.70;;;65.80;;
43646;SDS011;56152;49.996;18.980;2023-01-09T06:04:58;128.27;;;76.78;;
43646;SDS011;56152;49.996;18.980;2023-01-09T06:10:10;94.23;;;56.03;;
43646;SDS011;56152;49.996;18.980;2023-01-09T06:15:14;130.38;;;83.20;;
43646;SDS011;56152;49.996;18.980;2023-01-09T06:20:21;97.53;;;58.47;;
43646;SDS011;56152;49.996;18.980;2023-01-09T06:25:26;96.23;;;57.67;;
43646;SDS011;56152;49.996;18.980;2023-01-09T06:30:30;87.63;;;55.70;;
43646;SDS011;56152;49.996;18.980;2023-01-09T06:35:34;105.85;;;59.55;;
43646;SDS011;56152;49.996;18.980;2023-01-09T06:40:36;90.10;;;49.58;;
43646;SDS011;56152;49.996;18.980;2023-01-09T06:45:40;92.80;;;58.17;;
43646;SDS011;56152;49.996;18.980;2023-01-09T06:50:47;87.65;;;53.38;;
43646;SDS011;56152;49.996;18.980;2023-01-09T06:55:49;87.30;;;52.83;;
43646;SDS011;56152;49.996;18.980;2023-01-09T07:00:52;83.38;;;52.78;;
43646;SDS011;56152;49.996;18.980;2023-01-09T07:05:56;74.15;;;47.55;;
43646;SDS011;56152;49.996;18.980;2023-01-09T07:10:59;49.60;;;30.55;;
43646;SDS011;56152;49.996;18.980;2023-01-09T07:16:01;35.97;;;23.25;;
43646;SDS011;56152;49.996;18.980;2023-01-09T07:21:06;32.28;;;19.60;;
43646;SDS011;56152;49.996;18.980;2023-01-09T07:26:08;22.20;;;14.63;;
43646;SDS011;56152;49.996;18.980;2023-01-09T07:31:12;30.75;;;21.27;;
43646;SDS011;56152;49.996;18.980;2023-01-09T07:36:17;32.42;;;21.92;;
43646;SDS011;56152;49.996;18.980;2023-01-09T07:41:19;26.58;;;17.60;;
43646;SDS011;56152;49.996;18.980;2023-01-09T07:46:21;24.10;;;15.43;;
43646;SDS011;56152;49.996;18.980;2023-01-09T07:51:26;20.02;;;12.02;;
43646;SDS011;56152;49.996;18.980;2023-01-09T07:56:28;45.75;;;23.45;;
43646;SDS011;56152;49.996;18.980;2023-01-09T08:01:31;56.38;;;37.20;;
43646;SDS011;56152;49.996;18.980;2023-01-09T08:06:35;56.45;;;34.28;;
43646;SDS011;56152;49.996;18.980;2023-01-09T08:11:37;45.50;;;30.25;;
43646;SDS011;56152;49.996;18.980;2023-01-09T08:16:39;27.52;;;14.55;;
43646;SDS011;56152;49.996;18.980;2023-01-09T08:21:42;17.95;;;9.27;;
43646;SDS011;56152;49.996;18.980;2023-01-09T08:26:44;11.85;;;5.97;;
43646;SDS011;56152;49.996;18.980;2023-01-09T08:31:47;8.07;;;4.35;;
43646;SDS011;56152;49.996;18.980;2023-01-09T08:36:50;5.20;;;3.30;;
43646;SDS011;56152;49.996;18.980;2023-01-09T08:41:55;4.90;;;2.83;;
43646;SDS011;56152;49.996;18.980;2023-01-09T08:47:14;6.70;;;3.50;;
43646;SDS011;56152;49.996;18.980;2023-01-09T08:52:20;5.05;;;3.17;;
43646;SDS011;56152;49.996;18.980;2023-01-09T08:57:22;3.83;;;2.35;;
43646;SDS011;56152;49.996;18.980;2023-01-09T09:02:24;3.25;;;2.15;;
43646;SDS011;56152;49.996;18.980;2023-01-09T09:07:31;5.82;;;3.80;;
43646;SDS011;56152;49.996;18.980;2023-01-09T09:12:35;4.32;;;2.67;;
43646;SDS011;56152;49.996;18.980;2023-01-09T09:17:38;4.93;;;2.50;;
43646;SDS011;56152;49.996;18.980;2023-01-09T09:22:43;9.52;;;3.78;;
43646;SDS011;56152;49.996;18.980;2023-01-09T09:27:46;16.98;;;6.07;;
43646;SDS011;56152;49.996;18.980;2023-01-09T09:32:48;15.98;;;6.53;;
43646;SDS011;56152;49.996;18.980;2023-01-09T09:37:53;6.20;;;3.13;;
43646;SDS011;56152;49.996;18.980;2023-01-09T09:43:07;3.85;;;2.00;;
43646;SDS011;56152;49.996;18.980;2023-01-09T09:48:40;4.90;;;2.58;;
43646;SDS011;56152;49.996;18.980;2023-01-09T09:53:52;3.80;;;2.50;;
43646;SDS011;56152;49.996;18.980;2023-01-09T09:59:00;5.35;;;2.60;;
43646;SDS011;56152;49.996;18.980;2023-01-09T10:04:06;4.32;;;2.80;;
43646;SDS011;56152;49.996;18.980;2023-01-09T10:09:17;2.55;;;2.22;;
43646;SDS011;56152;49.996;18.980;2023-01-09T10:14:28;5.15;;;2.72;;
43646;SDS011;56152;49.996;18.980;2023-01-09T10:19:34;4.95;;;2.17;;
43646;SDS011;56152;49.996;18.980;2023-01-09T10:24:56;5.28;;;2.78;;
43646;SDS011;56152;49.996;18.980;2023-01-09T10:30:16;5.15;;;2.75;;
43646;SDS011;56152;49.996;18.980;2023-01-09T10:35:45;5.47;;;3.03;;
43646;SDS011;56152;49.996;18.980;2023-01-09T10:41:01;2.28;;;1.70;;
43646;SDS011;56152;49.996;18.980;2023-01-09T10:51:14;3.20;;;1.85;;
43646;SDS011;56152;49.996;18.980;2023-01-09T10:56:22;3.88;;;2.10;;
43646;SDS011;56152;49.996;18.980;2023-01-09T11:01:26;4.15;;;2.30;;
43646;SDS011;56152;49.996;18.980;2023-01-09T11:06:31;4.10;;;2.28;;
43646;SDS011;56152;49.996;18.980;2023-01-09T11:11:43;3.83;;;2.20;;
43646;SDS011;56152;49.996;18.980;2023-01-09T11:16:52;2.72;;;1.90;;
43646;SDS011;56152;49.996;18.980;2023-01-09T11:22:04;3.80;;;2.00;;
43646;SDS011;56152;49.996;18.980;2023-01-09T11:27:20;5.30;;;2.25;;
43646;SDS011;56152;49.996;18.980;2023-01-09T11:32:24;3.08;;;1.67;;
43646;SDS011;56152;49.996;18.980;2023-01-09T11:37:26;3.17;;;1.83;;
43646;SDS011;56152;49.996;18.980;2023-01-09T11:42:33;5.15;;;3.25;;
43646;SDS011;56152;49.996;18.980;2023-01-09T11:47:55;4.53;;;2.83;;
43646;SDS011;56152;49.996;18.980;2023-01-09T11:53:10;3.67;;;2.50;;
43646;SDS011;56152;49.996;18.980;2023-01-09T11:58:19;3.80;;;2.30;;
43646;SDS011;56152;49.996;18.980;2023-01-09T12:03:30;5.68;;;2.88;;
43646;SDS011;56152;49.996;18.980;2023-01-09T12:08:49;4.40;;;2.70;;
43646;SDS011;56152;49.996;18.980;2023-01-09T12:19:17;4.97;;;2.78;;
43646;SDS011;56152;49.996;18.980;2023-01-09T12:29:53;4.00;;;2.80;;
43646;SDS011;56152;49.996;18.980;2023-01-09T12:35:23;5.15;;;3.10;;
43646;SDS011;56152;49.996;18.980;2023-01-09T12:40:45;5.82;;;3.22;;
43646;SDS011;56152;49.996;18.980;2023-01-09T12:46:02;3.30;;;2.10;;
43646;SDS011;56152;49.996;18.980;2023-01-09T12:51:28;4.88;;;3.20;;
43646;SDS011;56152;49.996;18.980;2023-01-09T12:56:37;9.88;;;5.82;;
43646;SDS011;56152;49.996;18.980;2023-01-09T13:01:45;14.90;;;7.78;;
43646;SDS011;56152;49.996;18.980;2023-01-09T13:06:50;14.75;;;7.75;;
43646;SDS011;56152;49.996;18.980;2023-01-09T13:12:04;19.98;;;9.13;;
43646;SDS011;56152;49.996;18.980;2023-01-09T13:17:13;17.98;;;7.57;;
43646;SDS011;56152;49.996;18.980;2023-01-09T13:22:22;11.93;;;5.75;;
43646;SDS011;56152;49.996;18.980;2023-01-09T13:27:26;6.55;;;3.72;;
43646;SDS011;56152;49.996;18.980;2023-01-09T13:32:42;6.68;;;3.38;;
43646;SDS011;56152;49.996;18.980;2023-01-09T13:37:55;5.13;;;3.33;;
43646;SDS011;56152;49.996;18.980;2023-01-09T13:42:57;3.85;;;2.53;;
43646;SDS011;56152;49.996;18.980;2023-01-09T13:53:42;5.80;;;2.88;;
43646;SDS011;56152;49.996;18.980;2023-01-09T13:59:00;5.47;;;3.05;;
43646;SDS011;56152;49.996;18.980;2023-01-09T14:09:45;6.45;;;3.67;;
43646;SDS011;56152;49.996;18.980;2023-01-09T14:14:51;5.05;;;3.78;;
43646;SDS011;56152;49.996;18.980;2023-01-09T14:19:59;7.05;;;4.30;;
43646;SDS011;56152;49.996;18.980;2023-01-09T14:25:08;8.07;;;4.20;;
43646;SDS011;56152;49.996;18.980;2023-01-09T14:30:30;9.40;;;5.13;;
43646;SDS011;56152;49.996;18.980;2023-01-09T14:35:37;8.20;;;4.78;;
43646;SDS011;56152;49.996;18.980;2023-01-09T14:40:43;10.45;;;6.93;;
43646;SDS011;56152;49.996;18.980;2023-01-09T14:45:49;11.75;;;6.85;;
43646;SDS011;56152;49.996;18.980;2023-01-09T14:50:53;14.57;;;7.40;;
43646;SDS011;56152;49.996;18.980;2023-01-09T14:55:59;17.73;;;9.05;;
43646;SDS011;56152;49.996;18.980;2023-01-09T15:01:05;14.88;;;8.38;;
43646;SDS011;56152;49.996;18.980;2023-01-09T15:06:17;16.83;;;12.00;;
43646;SDS011;56152;49.996;18.980;2023-01-09T15:11:21;17.60;;;10.30;;
43646;SDS011;56152;49.996;18.980;2023-01-09T15:16:24;19.05;;;10.68;;
43646;SDS011;56152;49.996;18.980;2023-01-09T15:21:34;18.40;;;10.93;;
43646;SDS011;56152;49.996;18.980;2023-01-09T15:26:37;25.58;;;13.18;;
43646;SDS011;56152;49.996;18.980;2023-01-09T15:31:40;17.52;;;11.20;;
43646;SDS011;56152;49.996;18.980;2023-01-09T15:36:47;23.30;;;13.68;;
43646;SDS011;56152;49.996;18.980;2023-01-09T15:47:33;28.83;;;19.17;;
43646;SDS011;56152;49.996;18.980;2023-01-09T15:52:39;28.23;;;15.75;;
43646;SDS011;56152;49.996;18.980;2023-01-09T15:57:48;28.95;;;20.65;;
43646;SDS011;56152;49.996;18.980;2023-01-09T16:02:53;23.25;;;14.63;;
43646;SDS011;56152;49.996;18.980;2023-01-09T16:08:22;31.02;;;16.42;;
43646;SDS011;56152;49.996;18.980;2023-01-09T16:13:29;18.55;;;12.38;;
43646;SDS011;56152;49.996;18.980;2023-01-09T16:18:34;17.80;;;10.77;;
43646;SDS011;56152;49.996;18.980;2023-01-09T16:23:39;17.77;;;11.07;;
43646;SDS011;56152;49.996;18.980;2023-01-09T16:28:52;26.70;;;14.52;;
43646;SDS011;56152;49.996;18.980;2023-01-09T16:33:59;31.00;;;15.13;;
43646;SDS011;56152;49.996;18.980;2023-01-09T16:39:08;27.40;;;16.65;;
43646;SDS011;56152;49.996;18.980;2023-01-09T16:44:14;21.27;;;12.70;;
43646;SDS011;56152;49.996;18.980;2023-01-09T16:49:18;16.88;;;10.50;;
43646;SDS011;56152;49.996;18.980;2023-01-09T16:54:25;30.25;;;14.63;;
43646;SDS011;56152;49.996;18.980;2023-01-09T16:59:27;29.48;;;14.80;;
43646;SDS011;56152;49.996;18.980;2023-01-09T17:04:29;31.98;;;17.33;;
43646;SDS011;56152;49.996;18.980;2023-01-09T17:09:33;36.90;;;21.05;;
43646;SDS011;56152;49.996;18.980;2023-01-09T17:14:36;35.60;;;21.48;;
43646;SDS011;56152;49.996;18.980;2023-01-09T17:19:39;34.58;;;20.67;;
43646;SDS011;56152;49.996;18.980;2023-01-09T17:24:44;33.83;;;22.25;;
43646;SDS011;56152;49.996;18.980;2023-01-09T17:30:04;42.03;;;25.35;;
43646;SDS011;56152;49.996;18.980;2023-01-09T17:35:08;33.92;;;21.67;;
43646;SDS011;56152;49.996;18.980;2023-01-09T17:40:15;38.80;;;24.80;;
43646;SDS011;56152;49.996;18.980;2023-01-09T17:45:19;35.58;;;21.55;;
43646;SDS011;56152;49.996;18.980;2023-01-09T17:50:21;34.63;;;21.60;;
43646;SDS011;56152;49.996;18.980;2023-01-09T17:55:29;35.30;;;21.70;;
43646;SDS011;56152;49.996;18.980;2023-01-09T18:00:34;47.47;;;28.83;;
43646;SDS011;56152;49.996;18.980;2023-01-09T18:05:36;53.17;;;35.50;;
43646;SDS011;56152;49.996;18.980;2023-01-09T18:10:41;62.22;;;34.55;;
43646;SDS011;56152;49.996;18.980;2023-01-09T18:15:47;57.22;;;32.30;;
43646;SDS011;56152;49.996;18.980;2023-01-09T18:20:52;47.80;;;26.88;;
43646;SDS011;56152;49.996;18.980;2023-01-09T18:25:56;39.80;;;24.17;;
43646;SDS011;56152;49.996;18.980;2023-01-09T18:30:58;37.72;;;23.42;;
43646;SDS011;56152;49.996;18.980;2023-01-09T18:36:04;39.70;;;28.45;;
43646;SDS011;56152;49.996;18.980;2023-01-09T18:41:11;37.83;;;25.58;;
43646;SDS011;56152;49.996;18.980;2023-01-09T18:46:21;42.90;;;28.63;;
43646;SDS011;56152;49.996;18.980;2023-01-09T18:51:25;54.40;;;30.23;;
43646;SDS011;56152;49.996;18.980;2023-01-09T19:02:12;101.90;;;45.17;;
43646;SDS011;56152;49.996;18.980;2023-01-09T19:07:26;197.85;;;91.78;;
43646;SDS011;56152;49.996;18.980;2023-01-09T19:12:28;139.10;;;65.35;;
43646;SDS011;56152;49.996;18.980;2023-01-09T19:17:33;159.57;;;65.90;;
43646;SDS011;56152;49.996;18.980;2023-01-09T19:22:36;305.73;;;116.00;;
43646;SDS011;56152;49.996;18.980;2023-01-09T19:27:38;213.85;;;83.95;;
43646;SDS011;56152;49.996;18.980;2023-01-09T19:32:41;147.48;;;62.63;;
43646;SDS011;56152;49.996;18.980;2023-01-09T19:37:43;154.13;;;63.53;;
43646;SDS011;56152;49.996;18.980;2023-01-09T19:42:45;167.10;;;70.68;;
43646;SDS011;56152;49.996;18.980;2023-01-09T19:47:55;126.97;;;57.83;;
43646;SDS011;56152;49.996;18.980;2023-01-09T19:53:00;161.93;;;68.95;;
43646;SDS011;56152;49.996;18.980;2023-01-09T19:58:12;178.77;;;79.60;;
43646;SDS011;56152;49.996;18.980;2023-01-09T20:03:15;149.90;;;69.57;;
43646;SDS011;56152;49.996;18.980;2023-01-09T20:08:18;118.78;;;58.05;;
43646;SDS011;56152;49.996;18.980;2023-01-09T20:13:20;113.70;;;59.30;;
43646;SDS011;56152;49.996;18.980;2023-01-09T20:18:24;110.95;;;56.30;;
43646;SDS011;56152;49.996;18.980;2023-01-09T20:23:27;130.27;;;63.45;;
43646;SDS011;56152;49.996;18.980;2023-01-09T20:28:33;102.43;;;52.63;;
43646;SDS011;56152;49.996;18.980;2023-01-09T20:33:38;92.13;;;48.53;;
43646;SDS011;56152;49.996;18.980;2023-01-09T20:38:49;110.03;;;59.95;;
43646;SDS011;56152;49.996;18.980;2023-01-09T20:43:52;94.43;;;55.90;;
43646;SDS011;56152;49.996;18.980;2023-01-09T20:49:10;84.40;;;49.90;;
43646;SDS011;56152;49.996;18.980;2023-01-09T20:54:15;73.50;;;48.30;;
43646;SDS011;56152;49.996;18.980;2023-01-09T21:05:02;104.57;;;57.10;;
43646;SDS011;56152;49.996;18.980;2023-01-09T21:10:05;110.55;;;59.17;;
43646;SDS011;56152;49.996;18.980;2023-01-09T21:15:15;146.85;;;82.95;;
43646;SDS011;56152;49.996;18.980;2023-01-09T21:20:25;143.55;;;78.80;;
43646;SDS011;56152;49.996;18.980;2023-01-09T21:25:40;110.80;;;59.80;;
43646;SDS011;56152;49.996;18.980;2023-01-09T21:30:44;108.07;;;57.25;;
43646;SDS011;56152;49.996;18.980;2023-01-09T21:35:54;97.78;;;54.60;;
43646;SDS011;56152;49.996;18.980;2023-01-09T21:40:56;82.60;;;47.67;;
43646;SDS011;56152;49.996;18.980;2023-01-09T21:46:19;86.93;;;52.58;;
43646;SDS011;56152;49.996;18.980;2023-01-09T21:51:41;86.33;;;44.50;;
43646;SDS011;56152;49.996;18.980;2023-01-09T21:56:44;85.40;;;48.60;;
43646;SDS011;56152;49.996;18.980;2023-01-09T22:01:48;103.10;;;57.38;;
43646;SDS011;56152;49.996;18.980;2023-01-09T22:06:57;97.45;;;54.85;;
43646;SDS011;56152;49.996;18.980;2023-01-09T22:12:00;76.05;;;45.17;;
43646;SDS011;56152;49.996;18.980;2023-01-09T22:17:04;72.43;;;45.53;;
43646;SDS011;56152;49.996;18.980;2023-01-09T22:22:08;88.47;;;51.40;;
43646;SDS011;56152;49.996;18.980;2023-01-09T22:27:10;67.22;;;43.25;;
43646;SDS011;56152;49.996;18.980;2023-01-09T22:32:12;63.83;;;40.42;;
43646;SDS011;56152;49.996;18.980;2023-01-09T22:37:17;62.50;;;38.40;;
43646;SDS011;56152;49.996;18.980;2023-01-09T22:42:19;67.57;;;39.90;;
43646;SDS011;56152;49.996;18.980;2023-01-09T22:47:21;63.53;;;40.97;;
43646;SDS011;56152;49.996;18.980;2023-01-09T22:52:25;60.70;;;39.40;;
43646;SDS011;56152;49.996;18.980;2023-01-09T22:57:29;66.10;;;39.25;;
43646;SDS011;56152;49.996;18.980;2023-01-09T23:02:31;69.00;;;41.75;;
43646;SDS011;56152;49.996;18.980;2023-01-09T23:07:35;79.45;;;44.28;;
43646;SDS011;56152;49.996;18.980;2023-01-09T23:12:39;90.30;;;52.30;;
43646;SDS011;56152;49.996;18.980;2023-01-09T23:17:46;81.03;;;44.45;;
43646;SDS011;56152;49.996;18.980;2023-01-09T23:22:51;67.65;;;37.90;;
43646;SDS011;56152;49.996;18.980;2023-01-09T23:27:53;59.88;;;37.03;;
43646;SDS011;56152;49.996;18.980;2023-01-09T23:32:58;49.13;;;32.53;;
43646;SDS011;56152;49.996;18.980;2023-01-09T23:38:02;50.25;;;31.42;;
43646;SDS011;56152;49.996;18.980;2023-01-09T23:43:04;72.20;;;40.53;;
43646;SDS011;56152;49.996;18.980;2023-01-09T23:48:10;86.30;;;46.38;;
43646;SDS011;56152;49.996;18.980;2023-01-09T23:53:18;65.78;;;40.13;;
43646;SDS011;56152;49.996;18.980;2023-01-09T23:58:24;57.03;;;36.03;;
